createdAt,value
2023-03-30T00:01:17.266Z,8.20
2023-03-30T00:03:44.250Z,8.05
2023-03-30T00:06:09.082Z,8.25
2023-03-30T00:08:33.540Z,8.95
2023-03-30T00:11:02.658Z,8.35
2023-03-30T00:13:26.611Z,8.45
2023-03-30T00:15:51.625Z,8.50
2023-03-30T00:18:16.046Z,8.57
2023-03-30T00:20:43.234Z,9.00
2023-03-30T00:23:07.071Z,9.02
2023-03-30T00:25:30.852Z,10.27
2023-03-30T00:27:54.584Z,8.68
2023-03-30T00:30:20.267Z,9.40
2023-03-30T00:32:44.209Z,9.52
2023-03-30T00:35:09.224Z,9.88
2023-03-30T00:37:37.400Z,8.63
2023-03-30T00:40:01.291Z,9.05
2023-03-30T00:42:25.484Z,10.35
2023-03-30T00:45:26.584Z,10.13
2023-03-30T00:47:56.491Z,10.35
2023-03-30T00:50:23.913Z,10.10
2023-03-30T00:52:52.428Z,10.48
2023-03-30T00:55:16.405Z,10.60
2023-03-30T00:57:42.751Z,10.52
2023-03-30T01:00:11.700Z,10.30
2023-03-30T01:02:37.951Z,10.43
2023-03-30T01:05:02.416Z,9.18
2023-03-30T01:07:26.682Z,9.90
2023-03-30T01:09:53.857Z,10.27
2023-03-30T01:12:17.589Z,9.75
2023-03-30T01:14:43.191Z,10.52
2023-03-30T01:17:18.908Z,9.65
2023-03-30T01:20:49.334Z,10.13
2023-03-30T01:23:56.113Z,10.30
2023-03-30T01:26:41.707Z,10.60
2023-03-30T01:29:12.992Z,11.50
2023-03-30T01:32:10.090Z,10.45
2023-03-30T01:35:01.891Z,10.70
2023-03-30T01:37:51.660Z,10.60
2023-03-30T01:40:19.161Z,11.35
2023-03-30T01:42:51.794Z,11.80
2023-03-30T01:45:23.244Z,11.73
2023-03-30T01:47:55.524Z,12.35
2023-03-30T01:50:26.657Z,11.38
2023-03-30T01:52:58.608Z,11.18
2023-03-30T01:55:30.211Z,12.02
2023-03-30T01:57:59.379Z,11.65
2023-03-30T02:00:25.479Z,12.02
2023-03-30T02:02:55.007Z,11.50
2023-03-30T02:05:21.176Z,11.52
2023-03-30T02:07:48.292Z,11.80
2023-03-30T02:10:16.012Z,12.43
2023-03-30T02:12:41.869Z,12.02
2023-03-30T02:15:10.494Z,12.13
2023-03-30T02:17:36.001Z,12.82
2023-03-30T02:20:01.115Z,11.32
2023-03-30T02:22:26.365Z,13.43
2023-03-30T02:24:55.211Z,13.73
2023-03-30T02:27:19.642Z,12.68
2023-03-30T02:29:47.741Z,12.77
2023-03-30T02:32:22.224Z,12.18
2023-03-30T02:35:07.283Z,12.20
2023-03-30T02:37:59.284Z,11.82
2023-03-30T02:40:35.280Z,11.48
2023-03-30T02:43:24.646Z,11.60
2023-03-30T02:45:55.232Z,12.02
2023-03-30T02:48:35.071Z,11.88
2023-03-30T02:51:15.773Z,11.45
2023-03-30T02:54:08.047Z,11.57
2023-03-30T02:57:05.921Z,11.05
2023-03-30T02:59:37.302Z,11.90
2023-03-30T03:02:07.953Z,10.95
2023-03-30T03:04:34.257Z,10.45
2023-03-30T03:07:22.467Z,10.77
2023-03-30T03:09:46.601Z,11.20
2023-03-30T03:12:11.001Z,10.82
2023-03-30T03:14:35.147Z,10.05
2023-03-30T03:16:59.006Z,10.80
2023-03-30T03:19:31.262Z,11.20
2023-03-30T03:21:55.150Z,10.75
2023-03-30T03:24:19.157Z,10.73
2023-03-30T03:27:11.932Z,11.05
2023-03-30T03:29:51.121Z,11.40
2023-03-30T03:32:14.920Z,10.43
2023-03-30T03:34:44.727Z,11.38
2023-03-30T03:37:09.879Z,10.80
2023-03-30T03:39:33.806Z,11.68
2023-03-30T03:42:04.854Z,10.90
2023-03-30T03:44:28.966Z,11.38
2023-03-30T03:46:53.000Z,10.80
2023-03-30T03:49:16.919Z,11.05
2023-03-30T03:51:42.060Z,11.30
2023-03-30T03:54:05.989Z,10.38
2023-03-30T03:56:30.406Z,10.35
2023-03-30T03:58:54.239Z,10.93
2023-03-30T04:01:18.096Z,9.85
2023-03-30T04:03:42.207Z,10.15
2023-03-30T04:06:06.193Z,9.73
2023-03-30T04:08:31.727Z,9.40
2023-03-30T04:11:08.729Z,9.70
2023-03-30T04:14:01.884Z,9.02
2023-03-30T04:16:34.313Z,9.20
2023-03-30T04:19:19.810Z,9.27
2023-03-30T04:22:06.082Z,9.38
2023-03-30T04:25:05.646Z,9.70
2023-03-30T04:27:31.966Z,9.65
2023-03-30T04:30:20.726Z,9.38
2023-03-30T04:33:04.926Z,9.40
2023-03-30T04:35:51.765Z,9.65
2023-03-30T04:38:31.285Z,9.68
2023-03-30T04:40:56.861Z,9.27
2023-03-30T04:43:31.484Z,9.82
2023-03-30T04:46:24.206Z,9.02
2023-03-30T04:49:06.982Z,9.25
2023-03-30T04:51:49.170Z,9.68
2023-03-30T04:54:33.410Z,10.43
2023-03-30T04:57:24.932Z,9.48
2023-03-30T05:00:16.366Z,10.65
2023-03-30T05:03:15.399Z,10.52
2023-03-30T05:06:02.531Z,9.35
2023-03-30T05:08:41.981Z,9.60
2023-03-30T05:11:35.064Z,9.18
2023-03-30T05:14:18.871Z,9.32
2023-03-30T05:17:01.888Z,9.60
2023-03-30T05:19:35.094Z,10.35
2023-03-30T05:22:17.079Z,9.02
2023-03-30T05:25:08.522Z,9.57
2023-03-30T05:27:43.218Z,9.40
2023-03-30T05:30:34.348Z,9.70
2023-03-30T05:33:16.450Z,8.70
2023-03-30T05:35:58.606Z,9.20
2023-03-30T05:38:57.703Z,9.77
2023-03-30T05:41:53.860Z,9.40
2023-03-30T05:44:33.490Z,9.15
2023-03-30T05:47:18.919Z,8.93
2023-03-30T05:49:57.501Z,9.02
2023-03-30T05:52:26.346Z,9.60
2023-03-30T05:55:08.567Z,9.35
2023-03-30T05:57:59.243Z,9.20
2023-03-30T06:00:37.375Z,9.00
2023-03-30T06:03:12.206Z,8.93
2023-03-30T06:05:38.983Z,8.25
2023-03-30T06:08:04.622Z,9.00
2023-03-30T06:10:28.948Z,8.68
2023-03-30T06:12:53.259Z,8.25
2023-03-30T06:15:43.100Z,8.68
2023-03-30T06:18:13.268Z,9.18
2023-03-30T06:20:42.804Z,7.97
2023-03-30T06:23:06.937Z,8.50
2023-03-30T06:25:30.997Z,8.32
2023-03-30T06:27:55.082Z,9.75
2023-03-30T06:30:19.252Z,9.02
2023-03-30T06:32:46.585Z,7.82
2023-03-30T06:35:31.957Z,7.60
2023-03-30T06:37:57.026Z,8.50
2023-03-30T06:40:20.952Z,8.32
2023-03-30T06:42:47.155Z,8.93
2023-03-30T06:45:18.848Z,8.45
2023-03-30T06:47:44.130Z,8.57
2023-03-30T06:50:09.582Z,8.30
2023-03-30T06:52:55.969Z,9.10
2023-03-30T06:55:21.835Z,8.32
2023-03-30T06:57:45.666Z,7.95
2023-03-30T07:00:14.192Z,7.95
2023-03-30T07:02:57.500Z,7.75
2023-03-30T07:05:34.636Z,8.40
2023-03-30T07:08:11.252Z,7.60
2023-03-30T07:10:39.115Z,8.10
2023-03-30T07:13:04.932Z,7.32
2023-03-30T07:15:29.122Z,8.00
2023-03-30T07:17:53.628Z,7.50
2023-03-30T07:20:17.532Z,7.35
2023-03-30T07:23:07.878Z,7.13
2023-03-30T07:25:34.044Z,7.93
2023-03-30T07:28:06.656Z,7.45
2023-03-30T07:30:30.796Z,12.93
2023-03-30T07:33:00.351Z,7.20
2023-03-30T07:35:24.215Z,7.18
2023-03-30T07:37:50.813Z,6.93
2023-03-30T07:40:15.829Z,7.45
2023-03-30T07:42:44.165Z,7.43
2023-03-30T07:45:09.874Z,6.38
2023-03-30T07:47:33.808Z,6.55
2023-03-30T07:49:57.813Z,6.28
2023-03-30T07:52:21.991Z,6.28
2023-03-30T07:54:51.427Z,6.40
2023-03-30T07:57:19.682Z,6.50
2023-03-30T07:59:44.893Z,6.15
2023-03-30T08:02:23.401Z,6.25
2023-03-30T08:04:50.302Z,6.50
2023-03-30T08:07:20.569Z,5.90
2023-03-30T08:09:48.366Z,5.80
2023-03-30T08:12:12.079Z,6.07
2023-03-30T08:14:36.217Z,5.80
2023-03-30T08:17:01.331Z,5.22
2023-03-30T08:19:28.622Z,5.38
2023-03-30T08:21:52.566Z,5.80
2023-03-30T08:24:16.378Z,5.10
2023-03-30T08:26:40.095Z,4.80
2023-03-30T08:29:03.999Z,4.80
2023-03-30T08:31:27.801Z,4.38
2023-03-30T08:33:53.167Z,4.30
2023-03-30T08:36:17.043Z,4.78
2023-03-30T08:38:41.246Z,3.95
2023-03-30T08:42:11.906Z,4.10
2023-03-30T08:44:38.107Z,4.22
2023-03-30T08:47:04.407Z,4.10
2023-03-30T08:49:31.480Z,4.22
2023-03-30T08:51:57.076Z,4.00
2023-03-30T08:54:25.927Z,3.55
2023-03-30T08:57:01.380Z,3.30
2023-03-30T08:59:36.914Z,3.15
2023-03-30T09:02:03.350Z,3.30
2023-03-30T09:04:45.774Z,3.13
2023-03-30T09:07:17.166Z,3.10
2023-03-30T09:09:48.645Z,3.42
2023-03-30T09:12:21.530Z,2.78
2023-03-30T09:14:52.143Z,3.30
2023-03-30T09:17:21.272Z,2.95
2023-03-30T09:19:54.076Z,2.85
2023-03-30T09:22:19.905Z,3.17
2023-03-30T09:24:43.852Z,2.90
2023-03-30T09:27:17.134Z,4.25
2023-03-30T09:29:48.522Z,5.00
2023-03-30T09:32:16.501Z,2.90
2023-03-30T09:34:49.111Z,2.97
2023-03-30T09:37:16.338Z,2.88
2023-03-30T09:39:41.410Z,2.70
2023-03-30T09:42:29.294Z,2.40
2023-03-30T09:44:57.253Z,2.50
2023-03-30T09:47:27.053Z,2.80
2023-03-30T09:49:58.627Z,2.60
2023-03-30T09:52:24.553Z,2.63
2023-03-30T09:54:48.177Z,2.30
2023-03-30T09:57:28.419Z,2.25
2023-03-30T09:59:52.942Z,2.78
2023-03-30T10:02:22.284Z,2.65
2023-03-30T10:05:03.835Z,2.33
2023-03-30T10:07:30.884Z,2.50
2023-03-30T10:09:55.056Z,3.33
2023-03-30T10:12:19.068Z,2.30
2023-03-30T10:14:42.945Z,2.75
2023-03-30T10:17:07.985Z,2.70
2023-03-30T10:19:36.305Z,2.42
2023-03-30T10:22:04.590Z,2.47
2023-03-30T10:24:31.622Z,2.60
2023-03-30T10:26:58.926Z,2.78
2023-03-30T10:29:25.245Z,2.65
2023-03-30T10:31:51.710Z,3.35
2023-03-30T10:34:20.638Z,2.97
2023-03-30T10:36:45.349Z,2.53
2023-03-30T10:39:18.299Z,2.72
2023-03-30T10:41:43.761Z,2.22
2023-03-30T10:44:20.072Z,2.58
2023-03-30T10:46:44.295Z,2.95
2023-03-30T10:49:20.170Z,2.80
2023-03-30T10:52:01.597Z,3.58
2023-03-30T10:54:34.244Z,4.13
2023-03-30T10:57:04.383Z,2.88
2023-03-30T10:59:46.652Z,2.70
2023-03-30T11:02:45.088Z,2.60
2023-03-30T11:05:15.687Z,2.40
2023-03-30T11:07:45.570Z,3.38
2023-03-30T11:10:19.950Z,5.20
2023-03-30T11:12:49.457Z,2.97
2023-03-30T11:15:20.237Z,2.75
2023-03-30T11:17:58.976Z,2.20
2023-03-30T11:20:31.065Z,3.10
2023-03-30T11:23:02.870Z,2.40
2023-03-30T11:25:34.752Z,2.60
2023-03-30T11:28:08.736Z,2.10
2023-03-30T11:30:35.532Z,2.85
2023-03-30T11:33:07.013Z,2.15
2023-03-30T11:35:38.268Z,2.53
2023-03-30T11:38:10.501Z,2.38
2023-03-30T11:40:44.414Z,2.78
2023-03-30T11:43:11.021Z,2.97
2023-03-30T11:45:49.040Z,3.08
2023-03-30T11:48:50.770Z,3.00
2023-03-30T11:51:40.066Z,2.95
2023-03-30T11:54:31.860Z,3.03
2023-03-30T11:57:07.504Z,3.25
2023-03-30T11:59:42.901Z,3.10
2023-03-30T12:02:22.387Z,3.22
2023-03-30T12:04:51.404Z,3.15
2023-03-30T12:07:31.666Z,3.08
2023-03-30T12:09:58.110Z,3.03
2023-03-30T12:12:32.963Z,2.92
2023-03-30T12:15:11.088Z,3.17
2023-03-30T12:17:46.198Z,3.55
2023-03-30T12:20:29.334Z,3.90
2023-03-30T12:22:57.772Z,3.90
2023-03-30T12:25:31.949Z,3.85
2023-03-30T12:28:14.071Z,3.30
2023-03-30T12:30:48.579Z,3.03
2023-03-30T12:33:18.634Z,3.13
2023-03-30T12:36:00.710Z,2.72
2023-03-30T12:38:26.798Z,3.13
2023-03-30T12:41:03.903Z,2.70
2023-03-30T12:43:40.083Z,2.95
2023-03-30T12:46:14.223Z,3.55
2023-03-30T12:48:52.560Z,2.90
2023-03-30T12:51:32.047Z,2.42
2023-03-30T12:54:14.862Z,2.95
2023-03-30T12:56:47.665Z,2.60
2023-03-30T12:59:54.070Z,2.83
2023-03-30T13:02:40.573Z,3.22
2023-03-30T13:05:05.708Z,3.00
2023-03-30T13:07:36.377Z,3.10
2023-03-30T13:10:05.689Z,2.72
2023-03-30T13:12:38.032Z,2.90
2023-03-30T13:15:21.510Z,3.13
2023-03-30T13:18:00.835Z,2.50
2023-03-30T13:20:33.961Z,2.70
2023-03-30T13:23:07.874Z,2.55
2023-03-30T13:25:40.634Z,2.90
2023-03-30T13:28:37.315Z,2.72
2023-03-30T13:31:12.213Z,2.70
2023-03-30T13:33:40.072Z,2.55
2023-03-30T13:36:09.779Z,3.40
2023-03-30T13:39:05.710Z,2.00
2023-03-30T13:41:42.974Z,1.40
2023-03-30T13:44:24.875Z,1.30
2023-03-30T13:46:54.469Z,1.73
2023-03-30T13:49:35.286Z,1.65
2023-03-30T13:52:05.625Z,1.80
2023-03-30T13:54:34.460Z,1.90
2023-03-30T13:57:02.772Z,1.70
2023-03-30T13:59:31.222Z,1.70
2023-03-30T14:02:00.229Z,1.60
2023-03-30T14:04:24.712Z,1.67
2023-03-30T14:06:53.717Z,1.80
2023-03-30T14:09:23.696Z,1.73
2023-03-30T14:11:50.709Z,1.65
2023-03-30T14:14:23.214Z,1.95
2023-03-30T14:16:47.285Z,1.80
2023-03-30T14:19:22.314Z,1.65
2023-03-30T14:21:48.114Z,1.98
2023-03-30T14:24:16.796Z,2.75
2023-03-30T14:26:42.759Z,2.72
2023-03-30T14:29:24.711Z,2.33
2023-03-30T14:32:07.313Z,3.40
2023-03-30T14:34:36.189Z,2.50
2023-03-30T14:37:03.337Z,2.15
2023-03-30T14:39:27.445Z,2.60
2023-03-30T14:41:52.122Z,2.55
2023-03-30T14:44:17.598Z,2.38
2023-03-30T14:46:46.959Z,2.38
2023-03-30T14:49:19.904Z,2.58
2023-03-30T14:51:47.948Z,2.22
2023-03-30T14:54:19.014Z,2.70
2023-03-30T14:56:44.823Z,2.45
2023-03-30T14:59:09.748Z,3.10
2023-03-30T15:01:35.175Z,3.08
2023-03-30T15:04:00.696Z,2.80
2023-03-30T15:06:27.630Z,2.97
2023-03-30T15:08:53.046Z,3.17
2023-03-30T15:11:22.963Z,3.40
2023-03-30T15:13:51.966Z,3.17
2023-03-30T15:16:22.031Z,3.80
2023-03-30T15:18:46.206Z,3.65
2023-03-30T15:21:11.768Z,3.85
2023-03-30T15:23:40.944Z,2.88
2023-03-30T15:26:07.951Z,3.58
2023-03-30T15:28:37.982Z,3.47
2023-03-30T15:31:01.892Z,3.53
2023-03-30T15:33:32.649Z,3.17
2023-03-30T15:35:56.619Z,3.25
2023-03-30T15:38:30.593Z,3.45
2023-03-30T15:40:54.364Z,3.40
2023-03-30T15:43:23.284Z,3.28
2023-03-30T15:45:51.111Z,3.20
2023-03-30T15:48:16.789Z,3.08
2023-03-30T15:50:41.189Z,3.15
2023-03-30T15:53:06.103Z,3.25
2023-03-30T15:55:33.685Z,3.40
2023-03-30T15:57:57.651Z,4.68
2023-03-30T16:00:25.706Z,4.75
2023-03-30T16:02:57.437Z,3.38
2023-03-30T16:05:24.134Z,4.78
2023-03-30T16:07:48.362Z,8.55
2023-03-30T16:10:15.908Z,6.85
2023-03-30T16:12:43.104Z,6.63
2023-03-30T16:15:08.133Z,3.25
2023-03-30T16:17:34.399Z,3.45
2023-03-30T16:19:58.237Z,4.15
2023-03-30T16:22:21.945Z,4.95
2023-03-30T16:24:46.350Z,4.03
2023-03-30T16:27:12.004Z,3.13
2023-03-30T16:29:35.833Z,3.60
2023-03-30T16:32:00.043Z,3.30
2023-03-30T16:34:26.701Z,3.47
2023-03-30T16:36:51.046Z,4.57
2023-03-30T16:39:20.429Z,7.78
2023-03-30T16:41:44.822Z,6.18
2023-03-30T16:44:08.671Z,5.10
2023-03-30T16:46:32.366Z,7.45
2023-03-30T16:48:56.186Z,5.30
2023-03-30T16:51:21.624Z,3.60
2023-03-30T16:53:45.442Z,6.22
2023-03-30T16:56:17.888Z,4.78
2023-03-30T16:58:41.608Z,4.60
2023-03-30T17:01:05.776Z,3.20
2023-03-30T17:03:30.162Z,3.20
2023-03-30T17:05:53.867Z,2.88
2023-03-30T17:08:23.597Z,3.17
2023-03-30T17:10:47.225Z,3.20
2023-03-30T17:13:11.599Z,3.47
2023-03-30T17:15:38.667Z,3.67
2023-03-30T17:18:02.752Z,3.80
2023-03-30T17:20:31.834Z,3.60
2023-03-30T17:22:55.702Z,4.40
2023-03-30T17:25:23.526Z,3.45
2023-03-30T17:27:48.033Z,4.15
2023-03-30T17:30:21.236Z,3.15
2023-03-30T17:32:45.269Z,3.90
2023-03-30T17:35:10.538Z,4.15
2023-03-30T17:37:34.317Z,3.85
2023-03-30T17:39:58.049Z,3.85
2023-03-30T17:42:23.248Z,4.05
2023-03-30T17:44:46.933Z,4.10
2023-03-30T17:47:11.051Z,4.25
2023-03-30T17:49:34.764Z,4.32
2023-03-30T17:51:58.560Z,4.35
2023-03-30T17:54:24.700Z,4.32
2023-03-30T17:56:48.544Z,4.13
2023-03-30T17:59:14.173Z,4.32
2023-03-30T18:01:38.000Z,4.75
2023-03-30T18:04:04.262Z,4.30
2023-03-30T18:06:28.879Z,4.47
2023-03-30T18:08:52.967Z,4.78
2023-03-30T18:11:16.783Z,4.43
2023-03-30T18:13:40.485Z,4.82
2023-03-30T18:16:06.177Z,5.53
2023-03-30T18:18:31.976Z,5.35
2023-03-30T18:20:57.776Z,6.20
2023-03-30T18:23:22.461Z,6.35
2023-03-30T18:25:46.595Z,6.18
2023-03-30T18:28:18.317Z,6.72
2023-03-30T18:30:42.168Z,7.10
2023-03-30T18:33:08.089Z,7.75
2023-03-30T18:35:35.880Z,6.97
2023-03-30T18:38:00.720Z,7.03
2023-03-30T18:40:32.137Z,6.38
2023-03-30T18:42:56.926Z,6.10
2023-03-30T18:45:23.613Z,6.63
2023-03-30T18:47:47.429Z,7.00
2023-03-30T18:50:18.040Z,6.55
2023-03-30T18:52:42.011Z,6.72
2023-03-30T18:55:07.140Z,7.13
2023-03-30T18:57:30.909Z,6.95
2023-03-30T18:59:54.599Z,6.55
2023-03-30T19:02:18.406Z,6.70
2023-03-30T19:04:42.247Z,4.82
2023-03-30T19:07:07.473Z,4.35
2023-03-30T19:09:42.472Z,3.30
2023-03-30T19:12:07.745Z,2.85
2023-03-30T19:14:31.358Z,3.10
2023-03-30T19:16:55.099Z,2.67
2023-03-30T19:19:19.020Z,2.28
2023-03-30T19:21:43.261Z,2.05
2023-03-30T19:24:08.994Z,2.00
2023-03-30T19:26:32.981Z,1.85
2023-03-30T19:28:56.645Z,2.00
2023-03-30T19:31:20.455Z,11.20
2023-03-30T19:33:44.218Z,6.07
2023-03-30T19:36:08.920Z,13.38
2023-03-30T19:38:32.650Z,2.88
2023-03-30T19:41:01.557Z,3.95
2023-03-30T19:43:25.245Z,3.25
2023-03-30T19:45:52.363Z,1.00
2023-03-30T19:48:16.121Z,2.05
2023-03-30T19:50:40.788Z,2.60
2023-03-30T19:53:04.507Z,1.20
2023-03-30T19:55:29.418Z,1.17
2023-03-30T19:57:54.474Z,12.57
2023-03-30T20:00:19.872Z,9.02
2023-03-30T20:02:45.195Z,8.00
2023-03-30T20:05:13.077Z,4.28
2023-03-30T20:07:37.288Z,5.55
2023-03-30T20:10:01.173Z,3.55
2023-03-30T20:12:24.831Z,2.42
2023-03-30T20:14:50.067Z,6.90
2023-03-30T20:17:13.760Z,3.45
2023-03-30T20:19:40.648Z,3.50
2023-03-30T20:22:04.512Z,3.22
2023-03-30T20:24:28.330Z,3.50
2023-03-30T20:26:53.401Z,2.53
2023-03-30T20:29:17.163Z,2.42
2023-03-30T20:31:42.346Z,1.58
2023-03-30T20:34:06.538Z,1.70
2023-03-30T20:36:30.207Z,2.15
2023-03-30T20:38:56.054Z,1.60
2023-03-30T20:41:21.628Z,1.80
2023-03-30T20:43:56.530Z,2.15
2023-03-30T20:46:22.385Z,3.28
2023-03-30T20:48:54.057Z,1.75
2023-03-30T20:51:17.777Z,2.65
2023-03-30T20:53:42.466Z,2.30
2023-03-30T20:56:09.272Z,1.80
2023-03-30T20:58:33.106Z,1.40
2023-03-30T21:01:01.617Z,1.70
2023-03-30T21:03:29.255Z,2.20
2023-03-30T21:06:01.581Z,2.10
2023-03-30T21:08:25.516Z,1.75
2023-03-30T21:10:49.354Z,1.92
2023-03-30T21:13:15.080Z,2.50
2023-03-30T21:15:38.733Z,2.25
2023-03-30T21:18:02.502Z,3.60
2023-03-30T21:20:26.456Z,3.05
2023-03-30T21:22:51.654Z,3.35
2023-03-30T21:25:15.383Z,2.90
2023-03-30T21:27:39.149Z,2.40
2023-03-30T21:30:02.776Z,2.15
2023-03-30T21:32:28.686Z,2.40
2023-03-30T21:34:53.782Z,2.88
2023-03-30T21:37:17.558Z,1.98
2023-03-30T21:39:44.199Z,2.03
2023-03-30T21:42:08.168Z,2.00
2023-03-30T21:44:34.896Z,2.38
2023-03-30T21:46:58.667Z,2.40
2023-03-30T21:49:22.534Z,2.20
2023-03-30T21:51:46.971Z,2.40
2023-03-30T21:54:10.991Z,2.20
2023-03-30T21:56:36.629Z,2.60
2023-03-30T21:59:00.731Z,2.95
2023-03-30T22:01:25.240Z,2.88
2023-03-30T22:03:49.235Z,2.85
2023-03-30T22:06:16.284Z,3.20
2023-03-30T22:08:40.579Z,3.08
2023-03-30T22:11:08.646Z,3.45
2023-03-30T22:13:34.102Z,3.35
2023-03-30T22:15:59.024Z,3.20
2023-03-30T22:18:22.934Z,3.42
2023-03-30T22:20:47.416Z,3.47
2023-03-30T22:23:11.226Z,3.50
2023-03-30T22:25:35.003Z,4.10
2023-03-30T22:28:01.228Z,4.00
2023-03-30T22:30:26.443Z,4.20
2023-03-30T22:32:50.217Z,4.05
2023-03-30T22:35:14.023Z,4.10
2023-03-30T22:37:38.071Z,3.88
2023-03-30T22:40:01.827Z,4.35
2023-03-30T22:42:26.022Z,4.10
2023-03-30T22:44:50.369Z,3.92
2023-03-30T22:47:15.645Z,4.30
2023-03-30T22:49:40.093Z,4.50
2023-03-30T22:52:04.808Z,4.45
2023-03-30T22:54:28.539Z,4.38
2023-03-30T22:56:52.271Z,4.88
2023-03-30T22:59:16.545Z,3.78
2023-03-30T23:01:40.362Z,4.20
2023-03-30T23:04:05.870Z,4.35
2023-03-30T23:06:29.604Z,4.43
2023-03-30T23:08:54.649Z,4.32
2023-03-30T23:11:21.612Z,5.78
2023-03-30T23:13:45.384Z,5.13
2023-03-30T23:16:10.920Z,5.03
2023-03-30T23:18:35.164Z,5.25
2023-03-30T23:21:06.251Z,5.47
2023-03-30T23:23:30.637Z,5.00
2023-03-30T23:25:54.501Z,5.47
2023-03-30T23:28:18.485Z,5.63
2023-03-30T23:30:42.323Z,5.20
2023-03-30T23:33:06.616Z,5.20
2023-03-30T23:35:30.386Z,5.38
2023-03-30T23:37:55.602Z,5.22
2023-03-30T23:40:19.508Z,5.03
2023-03-30T23:42:43.274Z,5.53
2023-03-30T23:45:08.913Z,5.13
2023-03-30T23:47:32.646Z,5.30
2023-03-30T23:49:56.361Z,5.63
2023-03-30T23:52:20.190Z,5.30
2023-03-30T23:54:45.413Z,5.53
2023-03-30T23:57:09.896Z,4.70
2023-03-30T23:59:33.691Z,5.20
